sensor_id;sensor_type;location;lat;lon;timestamp;pressure;altitude;pressure_sealevel;temperature;humidity
64362;BME280;50685;53.346;-6.296;2023-02-10T06:13:04;103042.81;;;7.97;86.98
64362;BME280;50685;53.346;-6.296;2023-02-10T06:18:51;103037.84;;;8.06;86.76
64362;BME280;50685;53.346;-6.296;2023-02-10T06:26:59;103043.03;;;8.03;86.40
64362;BME280;50685;53.346;-6.296;2023-02-10T06:32:49;103052.06;;;8.10;86.98
64362;BME280;50685;53.346;-6.296;2023-02-10T06:35:44;103038.03;;;8.12;86.87
64362;BME280;50685;53.346;-6.296;2023-02-10T07:44:19;103080.53;;;8.18;86.37
64362;BME280;50685;53.346;-6.296;2023-02-10T07:46:47;103085.91;;;8.20;87.31
64362;BME280;50685;53.346;-6.296;2023-02-10T07:49:12;103093.03;;;8.23;87.27
64362;BME280;50685;53.346;-6.296;2023-02-10T07:51:42;103078.81;;;8.19;87.30
64362;BME280;50685;53.346;-6.296;2023-02-10T07:54:08;103098.19;;;8.19;87.16
64362;BME280;50685;53.346;-6.296;2023-02-10T07:56:36;103096.41;;;8.18;87.63
64362;BME280;50685;53.346;-6.296;2023-02-10T07:59:05;103084.09;;;8.19;88.10
64362;BME280;50685;53.346;-6.296;2023-02-10T08:01:33;103089.44;;;8.20;88.19
64362;BME280;50685;53.346;-6.296;2023-02-10T08:04:01;103089.44;;;8.20;87.96
64362;BME280;50685;53.346;-6.296;2023-02-10T08:06:30;103098.16;;;8.18;88.28
64362;BME280;50685;53.346;-6.296;2023-02-10T08:09:01;103099.00;;;8.17;88.42
64362;BME280;50685;53.346;-6.296;2023-02-10T08:11:26;103089.25;;;8.16;88.88
64362;BME280;50685;53.346;-6.296;2023-02-10T08:13:52;103107.03;;;8.20;89.18
64362;BME280;50685;53.346;-6.296;2023-02-10T08:16:18;103091.28;;;8.23;89.46
64362;BME280;50685;53.346;-6.296;2023-02-10T08:18:44;103093.06;;;8.24;89.62
64362;BME280;50685;53.346;-6.296;2023-02-10T08:21:14;103094.09;;;8.28;89.61
64362;BME280;50685;53.346;-6.296;2023-02-10T08:23:39;103091.47;;;8.29;89.49
64362;BME280;50685;53.346;-6.296;2023-02-10T08:26:09;103089.78;;;8.31;89.37
64362;BME280;50685;53.346;-6.296;2023-02-10T08:28:39;103090.75;;;8.33;89.50
64362;BME280;50685;53.346;-6.296;2023-02-10T08:31:08;103090.81;;;8.35;89.51
64362;BME280;50685;53.346;-6.296;2023-02-10T08:33:42;103077.63;;;8.36;89.39
64362;BME280;50685;53.346;-6.296;2023-02-10T08:36:29;103089.19;;;8.40;89.47
64362;BME280;50685;53.346;-6.296;2023-02-10T08:39:09;103088.41;;;8.43;89.86
64362;BME280;50685;53.346;-6.296;2023-02-10T08:41:57;103098.38;;;8.50;89.81
64362;BME280;50685;53.346;-6.296;2023-02-10T08:47:12;103096.97;;;8.61;89.73
64362;BME280;50685;53.346;-6.296;2023-02-10T08:49:52;103096.25;;;8.65;89.75
64362;BME280;50685;53.346;-6.296;2023-02-10T08:52:17;103104.25;;;8.68;89.60
64362;BME280;50685;53.346;-6.296;2023-02-10T08:54:43;103100.81;;;8.71;89.45
64362;BME280;50685;53.346;-6.296;2023-02-10T08:57:08;103104.41;;;8.73;89.31
64362;BME280;50685;53.346;-6.296;2023-02-10T08:59:37;103095.69;;;8.76;89.23
64362;BME280;50685;53.346;-6.296;2023-02-10T09:02:08;103093.16;;;8.79;88.99
64362;BME280;50685;53.346;-6.296;2023-02-10T09:04:37;103104.81;;;8.86;88.81
64362;BME280;50685;53.346;-6.296;2023-02-10T09:07:06;103098.03;;;8.94;88.77
64362;BME280;50685;53.346;-6.296;2023-02-10T09:09:32;103113.38;;;9.06;88.71
64362;BME280;50685;53.346;-6.296;2023-02-10T09:12:09;103118.09;;;9.16;87.75
64362;BME280;50685;53.346;-6.296;2023-02-10T09:14:40;103124.47;;;9.23;87.40
64362;BME280;50685;53.346;-6.296;2023-02-10T09:17:17;103138.00;;;9.32;86.93
64362;BME280;50685;53.346;-6.296;2023-02-10T09:19:42;103132.78;;;9.35;86.69
64362;BME280;50685;53.346;-6.296;2023-02-10T09:22:10;103139.94;;;9.38;86.58
64362;BME280;50685;53.346;-6.296;2023-02-10T09:27:34;103154.22;;;9.43;86.19
64362;BME280;50685;53.346;-6.296;2023-02-10T09:30:00;103142.88;;;9.47;86.59
64362;BME280;50685;53.346;-6.296;2023-02-10T09:32:29;103141.97;;;9.46;86.50
64362;BME280;50685;53.346;-6.296;2023-02-10T09:40:45;103135.13;;;9.55;86.21
64362;BME280;50685;53.346;-6.296;2023-02-10T09:46:26;103153.81;;;9.59;86.35
64362;BME280;50685;53.346;-6.296;2023-02-10T09:52:36;103150.59;;;9.70;86.03
64362;BME280;50685;53.346;-6.296;2023-02-10T10:10:52;103131.66;;;9.88;85.85
64362;BME280;50685;53.346;-6.296;2023-02-10T10:14:13;103129.25;;;9.95;85.39
64362;BME280;50685;53.346;-6.296;2023-02-10T10:19:55;103134.94;;;10.43;83.49
64362;BME280;50685;53.346;-6.296;2023-02-10T10:22:41;103125.72;;;10.64;82.71
64362;BME280;50685;53.346;-6.296;2023-02-10T10:30:44;103121.13;;;10.93;80.32
64362;BME280;50685;53.346;-6.296;2023-02-10T10:35:54;103124.88;;;11.03;79.68
64362;BME280;50685;53.346;-6.296;2023-02-10T10:38:28;103131.13;;;11.05;79.42
64362;BME280;50685;53.346;-6.296;2023-02-10T10:40:55;103115.19;;;11.05;79.13
64362;BME280;50685;53.346;-6.296;2023-02-10T10:48:41;103121.78;;;10.84;80.45
64362;BME280;50685;53.346;-6.296;2023-02-10T10:51:07;103125.50;;;10.92;80.38
64362;BME280;50685;53.346;-6.296;2023-02-10T10:53:40;103131.00;;;10.99;79.91
64362;BME280;50685;53.346;-6.296;2023-02-10T10:58:49;103129.47;;;11.10;79.15
64362;BME280;50685;53.346;-6.296;2023-02-10T11:01:16;103126.94;;;11.15;79.01
64362;BME280;50685;53.346;-6.296;2023-02-10T11:03:41;103114.53;;;11.15;78.58
64362;BME280;50685;53.346;-6.296;2023-02-10T11:06:14;103123.59;;;11.25;78.38
64362;BME280;50685;53.346;-6.296;2023-02-10T11:11:38;103131.94;;;11.42;77.29
64362;BME280;50685;53.346;-6.296;2023-02-10T11:14:18;103131.09;;;11.45;77.24
64362;BME280;50685;53.346;-6.296;2023-02-10T11:16:46;103124.88;;;11.44;77.28
64362;BME280;50685;53.346;-6.296;2023-02-10T11:19:18;103140.75;;;11.39;77.03
64362;BME280;50685;53.346;-6.296;2023-02-10T11:21:53;103129.09;;;11.34;77.29
64362;BME280;50685;53.346;-6.296;2023-02-10T11:24:24;103137.13;;;11.36;77.40
64362;BME280;50685;53.346;-6.296;2023-02-10T11:29:53;103138.78;;;11.31;77.42
64362;BME280;50685;53.346;-6.296;2023-02-10T11:32:29;103117.44;;;11.28;77.46
64362;BME280;50685;53.346;-6.296;2023-02-10T11:41:27;103135.03;;;11.21;78.27
64362;BME280;50685;53.346;-6.296;2023-02-10T11:46:53;103124.44;;;11.22;78.55
64362;BME280;50685;53.346;-6.296;2023-02-10T11:49:19;103129.66;;;11.19;78.63
64362;BME280;50685;53.346;-6.296;2023-02-10T11:54:40;103119.88;;;11.18;78.98
64362;BME280;50685;53.346;-6.296;2023-02-10T12:02:43;103114.69;;;11.23;79.33
64362;BME280;50685;53.346;-6.296;2023-02-10T12:10:47;103099.72;;;11.27;79.46
64362;BME280;50685;53.346;-6.296;2023-02-10T12:13:24;103108.53;;;11.25;79.38
64362;BME280;50685;53.346;-6.296;2023-02-10T12:18:55;103094.28;;;11.20;79.72
64362;BME280;50685;53.346;-6.296;2023-02-10T12:24:10;103098.72;;;11.21;79.68
64362;BME280;50685;53.346;-6.296;2023-02-10T12:26:55;103077.44;;;11.20;79.54
64362;BME280;50685;53.346;-6.296;2023-02-10T12:29:29;103087.28;;;11.25;79.17
64362;BME280;50685;53.346;-6.296;2023-02-10T12:34:51;103094.50;;;11.31;78.87
64362;BME280;50685;53.346;-6.296;2023-02-10T12:37:28;103091.03;;;11.34;78.56
64362;BME280;50685;53.346;-6.296;2023-02-10T12:42:27;103092.88;;;11.38;78.46
64362;BME280;50685;53.346;-6.296;2023-02-10T12:47:47;103097.38;;;11.40;77.94
64362;BME280;50685;53.346;-6.296;2023-02-10T12:50:25;103085.84;;;11.40;78.17
64362;BME280;50685;53.346;-6.296;2023-02-10T12:53:03;103098.22;;;11.39;78.27
64362;BME280;50685;53.346;-6.296;2023-02-10T12:55:44;103086.66;;;11.37;78.66
64362;BME280;50685;53.346;-6.296;2023-02-10T12:58:15;103080.47;;;11.37;78.86
64362;BME280;50685;53.346;-6.296;2023-02-10T13:00:44;103090.25;;;11.39;79.00
64362;BME280;50685;53.346;-6.296;2023-02-10T13:03:12;103082.38;;;11.44;78.82
64362;BME280;50685;53.346;-6.296;2023-02-10T13:05:46;103093.06;;;11.47;78.83
64362;BME280;50685;53.346;-6.296;2023-02-10T13:08:14;103081.69;;;11.53;78.48
64362;BME280;50685;53.346;-6.296;2023-02-10T13:10:43;103080.88;;;11.57;78.36
64362;BME280;50685;53.346;-6.296;2023-02-10T13:13:15;103077.31;;;11.56;77.98
64362;BME280;50685;53.346;-6.296;2023-02-10T13:15:43;103070.13;;;11.52;78.04
64362;BME280;50685;53.346;-6.296;2023-02-10T13:18:21;103083.41;;;11.52;78.20
64362;BME280;50685;53.346;-6.296;2023-02-10T13:23:30;103086.19;;;11.57;78.20
64362;BME280;50685;53.346;-6.296;2023-02-10T13:28:34;103082.00;;;11.70;77.63
64362;BME280;50685;53.346;-6.296;2023-02-10T13:34:00;103075.78;;;11.69;77.48
64362;BME280;50685;53.346;-6.296;2023-02-10T13:36:27;103080.25;;;11.72;77.56
64362;BME280;50685;53.346;-6.296;2023-02-10T13:39:03;103087.38;;;11.73;77.59
64362;BME280;50685;53.346;-6.296;2023-02-10T13:41:34;103089.19;;;11.76;76.97
64362;BME280;50685;53.346;-6.296;2023-02-10T13:49:56;103099.19;;;11.87;75.86
64362;BME280;50685;53.346;-6.296;2023-02-10T13:57:56;103093.06;;;11.93;74.96
64362;BME280;50685;53.346;-6.296;2023-02-10T14:00:23;103091.44;;;11.98;74.66
64362;BME280;50685;53.346;-6.296;2023-02-10T14:08:33;103080.81;;;12.00;74.01
64362;BME280;50685;53.346;-6.296;2023-02-10T14:13:29;103081.72;;;12.02;74.09
64362;BME280;50685;53.346;-6.296;2023-02-10T14:15:59;103084.38;;;12.02;73.99
64362;BME280;50685;53.346;-6.296;2023-02-10T14:18:35;103072.94;;;12.04;73.74
64362;BME280;50685;53.346;-6.296;2023-02-10T14:21:05;103059.63;;;12.04;73.83
64362;BME280;50685;53.346;-6.296;2023-02-10T14:23:35;103086.25;;;12.06;73.55
64362;BME280;50685;53.346;-6.296;2023-02-10T14:26:04;103049.78;;;11.99;73.18
64362;BME280;50685;53.346;-6.296;2023-02-10T14:28:34;103075.63;;;12.06;73.16
64362;BME280;50685;53.346;-6.296;2023-02-10T14:31:04;103073.81;;;12.03;72.96
64362;BME280;50685;53.346;-6.296;2023-02-10T14:33:33;103079.97;;;12.02;73.18
64362;BME280;50685;53.346;-6.296;2023-02-10T14:36:00;103082.69;;;12.05;73.27
64362;BME280;50685;53.346;-6.296;2023-02-10T14:38:29;103087.09;;;12.03;73.30
64362;BME280;50685;53.346;-6.296;2023-02-10T14:40:56;103080.00;;;12.04;73.30
64362;BME280;50685;53.346;-6.296;2023-02-10T14:43:23;103086.25;;;12.04;73.55
64362;BME280;50685;53.346;-6.296;2023-02-10T14:45:49;103081.72;;;12.02;73.64
64362;BME280;50685;53.346;-6.296;2023-02-10T14:48:15;103088.84;;;12.03;73.50
64362;BME280;50685;53.346;-6.296;2023-02-10T14:50:58;103085.28;;;12.01;73.65
64362;BME280;50685;53.346;-6.296;2023-02-10T14:53:24;103077.22;;;11.98;74.05
64362;BME280;50685;53.346;-6.296;2023-02-10T14:55:53;103082.56;;;11.98;73.96
64362;BME280;50685;53.346;-6.296;2023-02-10T14:58:20;103074.56;;;11.98;74.37
64362;BME280;50685;53.346;-6.296;2023-02-10T15:00:57;103079.00;;;11.97;74.25
64362;BME280;50685;53.346;-6.296;2023-02-10T15:03:25;103070.94;;;11.94;74.09
64362;BME280;50685;53.346;-6.296;2023-02-10T15:05:52;103058.69;;;12.01;73.95
64362;BME280;50685;53.346;-6.296;2023-02-10T15:09:03;103068.41;;;12.00;73.41
64362;BME280;50685;53.346;-6.296;2023-02-10T15:29:14;103074.69;;;12.04;71.93
64362;BME280;50685;53.346;-6.296;2023-02-10T15:32:00;103081.78;;;12.03;71.98
64362;BME280;50685;53.346;-6.296;2023-02-10T15:34:27;103067.53;;;12.00;72.07
64362;BME280;50685;53.346;-6.296;2023-02-10T15:37:02;103060.41;;;11.99;72.29
64362;BME280;50685;53.346;-6.296;2023-02-10T15:39:33;103054.22;;;12.00;72.27
64362;BME280;50685;53.346;-6.296;2023-02-10T15:44:39;103049.66;;;11.96;72.19
64362;BME280;50685;53.346;-6.296;2023-02-10T15:49:40;103057.53;;;11.88;72.49
64362;BME280;50685;53.346;-6.296;2023-02-10T15:52:09;103065.41;;;11.83;72.58
64362;BME280;50685;53.346;-6.296;2023-02-10T15:54:35;103079.53;;;11.79;72.67
64362;BME280;50685;53.346;-6.296;2023-02-10T15:57:03;103090.06;;;11.74;72.99
64362;BME280;50685;53.346;-6.296;2023-02-10T15:59:29;103083.84;;;11.74;73.54
64362;BME280;50685;53.346;-6.296;2023-02-10T16:01:55;103085.59;;;11.72;73.44
64362;BME280;50685;53.346;-6.296;2023-02-10T16:04:20;103097.94;;;11.70;74.01
64362;BME280;50685;53.346;-6.296;2023-02-10T16:06:45;103087.25;;;11.67;74.32
64362;BME280;50685;53.346;-6.296;2023-02-10T16:09:11;103097.88;;;11.65;73.84
64362;BME280;50685;53.346;-6.296;2023-02-10T16:11:36;103094.28;;;11.63;74.16
64362;BME280;50685;53.346;-6.296;2023-02-10T16:14:02;103079.16;;;11.61;74.14
64362;BME280;50685;53.346;-6.296;2023-02-10T16:16:27;103094.19;;;11.60;74.35
64362;BME280;50685;53.346;-6.296;2023-02-10T16:18:52;103091.53;;;11.58;74.38
64362;BME280;50685;53.346;-6.296;2023-02-10T16:21:18;103080.03;;;11.60;74.60
64362;BME280;50685;53.346;-6.296;2023-02-10T16:23:43;103087.03;;;11.54;74.68
64362;BME280;50685;53.346;-6.296;2023-02-10T16:26:11;103087.03;;;11.54;75.12
64362;BME280;50685;53.346;-6.296;2023-02-10T16:28:40;103086.06;;;11.51;75.62
64362;BME280;50685;53.346;-6.296;2023-02-10T16:31:05;103090.44;;;11.49;75.53
64362;BME280;50685;53.346;-6.296;2023-02-10T16:33:31;103101.06;;;11.49;75.85
64362;BME280;50685;53.346;-6.296;2023-02-10T16:35:57;103098.38;;;11.47;75.75
64362;BME280;50685;53.346;-6.296;2023-02-10T16:38:28;103110.78;;;11.47;75.96
64362;BME280;50685;53.346;-6.296;2023-02-10T16:40:53;103116.03;;;11.45;76.13
64362;BME280;50685;53.346;-6.296;2023-02-10T16:43:20;103118.69;;;11.45;76.23
64362;BME280;50685;53.346;-6.296;2023-02-10T16:45:46;103119.63;;;11.47;76.32
64362;BME280;50685;53.346;-6.296;2023-02-10T16:48:11;103125.03;;;11.50;76.16
64362;BME280;50685;53.346;-6.296;2023-02-10T16:50:40;103124.16;;;11.51;76.53
64362;BME280;50685;53.346;-6.296;2023-02-10T16:53:06;103122.38;;;11.50;76.33
64362;BME280;50685;53.346;-6.296;2023-02-10T16:55:35;103132.94;;;11.47;76.46
64362;BME280;50685;53.346;-6.296;2023-02-10T16:58:00;103123.97;;;11.42;76.95
64362;BME280;50685;53.346;-6.296;2023-02-10T17:00:26;103117.69;;;11.38;77.35
64362;BME280;50685;53.346;-6.296;2023-02-10T17:02:51;103112.28;;;11.35;77.52
64362;BME280;50685;53.346;-6.296;2023-02-10T17:05:17;103111.34;;;11.32;77.99
64362;BME280;50685;53.346;-6.296;2023-02-10T17:07:43;103135.25;;;11.32;78.19
64362;BME280;50685;53.346;-6.296;2023-02-10T17:10:11;103132.50;;;11.27;78.32
64362;BME280;50685;53.346;-6.296;2023-02-10T17:12:37;103144.75;;;11.22;78.07
64362;BME280;50685;53.346;-6.296;2023-02-10T17:15:03;103152.66;;;11.17;78.19
64362;BME280;50685;53.346;-6.296;2023-02-10T17:17:28;103156.94;;;11.12;78.41
64362;BME280;50685;53.346;-6.296;2023-02-10T17:19:53;103162.19;;;11.09;78.46
64362;BME280;50685;53.346;-6.296;2023-02-10T17:22:18;103162.94;;;11.03;78.74
64362;BME280;50685;53.346;-6.296;2023-02-10T17:24:44;103167.28;;;11.00;78.96
64362;BME280;50685;53.346;-6.296;2023-02-10T17:27:09;103170.63;;;10.92;79.32
64362;BME280;50685;53.346;-6.296;2023-02-10T17:29:35;103183.91;;;10.92;79.38
64362;BME280;50685;53.346;-6.296;2023-02-10T17:32:00;103182.09;;;10.90;79.49
64362;BME280;50685;53.346;-6.296;2023-02-10T17:34:25;103182.97;;;10.89;79.87
64362;BME280;50685;53.346;-6.296;2023-02-10T17:36:58;103183.75;;;10.86;80.12
64362;BME280;50685;53.346;-6.296;2023-02-10T17:39:23;103185.53;;;10.86;80.59
64362;BME280;50685;53.346;-6.296;2023-02-10T17:41:54;103182.84;;;10.84;80.54
64362;BME280;50685;53.346;-6.296;2023-02-10T17:44:20;103189.03;;;10.83;80.79
64362;BME280;50685;53.346;-6.296;2023-02-10T17:46:46;103184.53;;;10.81;81.08
64362;BME280;50685;53.346;-6.296;2023-02-10T18:28:51;103223.22;;;10.71;80.94
64362;BME280;50685;53.346;-6.296;2023-02-10T18:37:35;103231.84;;;10.62;80.44
64362;BME280;50685;53.346;-6.296;2023-02-10T18:43:32;103237.16;;;10.62;80.31
64362;BME280;50685;53.346;-6.296;2023-02-10T18:49:29;103233.34;;;10.52;79.76
64362;BME280;50685;53.346;-6.296;2023-02-10T19:14:15;103263.34;;;10.19;82.02
64362;BME280;50685;53.346;-6.296;2023-02-10T19:46:03;103282.00;;;9.92;82.60
64362;BME280;50685;53.346;-6.296;2023-02-10T19:48:44;103282.84;;;9.91;82.39
64362;BME280;50685;53.346;-6.296;2023-02-10T20:50:17;103292.09;;;9.75;79.38
64362;BME280;50685;53.346;-6.296;2023-02-10T20:55:25;103308.53;;;9.64;80.12
64362;BME280;50685;53.346;-6.296;2023-02-10T21:08:43;103305.59;;;9.55;81.68
64362;BME280;50685;53.346;-6.296;2023-02-10T21:11:10;103296.69;;;9.53;82.18
64362;BME280;50685;53.346;-6.296;2023-02-10T21:13:44;103299.31;;;9.52;82.73
64362;BME280;50685;53.346;-6.296;2023-02-10T21:16:33;103298.31;;;9.48;83.50
64362;BME280;50685;53.346;-6.296;2023-02-10T21:19:05;103300.72;;;9.40;84.04
64362;BME280;50685;53.346;-6.296;2023-02-10T21:31:12;103295.53;;;9.18;86.54
64362;BME280;50685;53.346;-6.296;2023-02-10T21:34:00;103278.75;;;9.17;86.57
64362;BME280;50685;53.346;-6.296;2023-02-10T21:36:48;103263.59;;;9.13;86.75
64362;BME280;50685;53.346;-6.296;2023-02-10T21:39:29;103269.63;;;9.07;86.49
64362;BME280;50685;53.346;-6.296;2023-02-10T21:42:12;103282.78;;;9.06;86.77
64362;BME280;50685;53.346;-6.296;2023-02-10T22:14:23;103288.06;;;9.06;84.67
64362;BME280;50685;53.346;-6.296;2023-02-10T22:20:19;103305.56;;;9.00;85.31
64362;BME280;50685;53.346;-6.296;2023-02-10T22:25:44;103307.94;;;8.93;85.64
64362;BME280;50685;53.346;-6.296;2023-02-10T22:28:40;103324.78;;;8.95;85.60
64362;BME280;50685;53.346;-6.296;2023-02-10T22:31:34;103327.53;;;8.98;85.74
64362;BME280;50685;53.346;-6.296;2023-02-10T22:34:17;103324.91;;;8.99;85.67
64362;BME280;50685;53.346;-6.296;2023-02-10T22:36:59;103321.34;;;8.97;85.90
64362;BME280;50685;53.346;-6.296;2023-02-10T22:39:49;103320.22;;;8.91;86.31
64362;BME280;50685;53.346;-6.296;2023-02-10T22:42:37;103301.44;;;8.83;86.72
64362;BME280;50685;53.346;-6.296;2023-02-10T22:45:26;103315.47;;;8.80;86.92
64362;BME280;50685;53.346;-6.296;2023-02-10T22:50:48;103300.16;;;8.72;86.84
64362;BME280;50685;53.346;-6.296;2023-02-10T23:05:52;103345.47;;;8.57;86.67
64362;BME280;50685;53.346;-6.296;2023-02-10T23:14:23;103334.59;;;8.49;86.95
64362;BME280;50685;53.346;-6.296;2023-02-10T23:17:12;103331.91;;;8.47;86.99
64362;BME280;50685;53.346;-6.296;2023-02-10T23:20:04;103333.66;;;8.47;87.25
